Terminal Aerodrome Forecast
Issued by NWS Goodland, KS

Home | Current Version | Previous Version | Text Only | Print | Product List | Glossary On
Versions: 1 2 3 4 5 6 7 8 9 10 11 12 13 14 15 16 17 18
576
FTUS43 KGLD 201132
TAFGLD
TAF
KGLD 201132Z 2012/2112 32008KT P6SM FEW250
     FM201700 VRB06KT P6SM FEW250
     FM210100 15011KT P6SM SKC WS020/17035KT=

USA.gov is the U.S. government's official web portal to all federal, state and local government web resources and services.